sensor_id;sensor_type;location;lat;lon;timestamp;P1;durP1;ratioP1;P2;durP2;ratioP2
9643;SDS011;4860;50.900;4.720;2023-03-14T00:00:38;0.20;;;0.20;;
9643;SDS011;4860;50.900;4.720;2023-03-14T00:03:04;0.10;;;0.10;;
9643;SDS011;4860;50.900;4.720;2023-03-14T00:05:30;0.20;;;0.20;;
9643;SDS011;4860;50.900;4.720;2023-03-14T00:07:57;0.20;;;0.20;;
9643;SDS011;4860;50.900;4.720;2023-03-14T00:10:23;0.20;;;0.20;;
9643;SDS011;4860;50.900;4.720;2023-03-14T00:12:49;0.20;;;0.20;;
9643;SDS011;4860;50.900;4.720;2023-03-14T00:15:15;0.10;;;0.10;;
9643;SDS011;4860;50.900;4.720;2023-03-14T00:17:42;0.10;;;0.10;;
9643;SDS011;4860;50.900;4.720;2023-03-14T00:20:09;0.20;;;0.20;;
9643;SDS011;4860;50.900;4.720;2023-03-14T00:22:36;0.20;;;0.20;;
9643;SDS011;4860;50.900;4.720;2023-03-14T00:25:03;0.10;;;0.10;;
9643;SDS011;4860;50.900;4.720;2023-03-14T00:27:30;0.10;;;0.10;;
9643;SDS011;4860;50.900;4.720;2023-03-14T00:29:56;0.20;;;0.20;;
9643;SDS011;4860;50.900;4.720;2023-03-14T00:32:22;0.13;;;0.13;;
9643;SDS011;4860;50.900;4.720;2023-03-14T00:34:49;0.10;;;0.10;;
9643;SDS011;4860;50.900;4.720;2023-03-14T00:37:15;0.20;;;0.20;;
9643;SDS011;4860;50.900;4.720;2023-03-14T00:39:41;0.20;;;0.20;;
9643;SDS011;4860;50.900;4.720;2023-03-14T00:42:07;0.10;;;0.10;;
9643;SDS011;4860;50.900;4.720;2023-03-14T00:44:33;0.20;;;0.20;;
9643;SDS011;4860;50.900;4.720;2023-03-14T00:47:00;0.10;;;0.10;;
9643;SDS011;4860;50.900;4.720;2023-03-14T00:49:26;0.10;;;0.10;;
9643;SDS011;4860;50.900;4.720;2023-03-14T00:51:52;0.13;;;0.13;;
9643;SDS011;4860;50.900;4.720;2023-03-14T00:54:18;0.20;;;0.20;;
9643;SDS011;4860;50.900;4.720;2023-03-14T00:56:45;0.20;;;0.20;;
9643;SDS011;4860;50.900;4.720;2023-03-14T00:59:11;0.20;;;0.20;;
9643;SDS011;4860;50.900;4.720;2023-03-14T01:01:38;0.13;;;0.13;;
9643;SDS011;4860;50.900;4.720;2023-03-14T01:04:04;0.10;;;0.10;;
9643;SDS011;4860;50.900;4.720;2023-03-14T01:06:30;0.20;;;0.20;;
9643;SDS011;4860;50.900;4.720;2023-03-14T01:08:57;0.20;;;0.20;;
9643;SDS011;4860;50.900;4.720;2023-03-14T01:11:24;0.15;;;0.15;;
9643;SDS011;4860;50.900;4.720;2023-03-14T01:13:50;0.20;;;0.20;;
9643;SDS011;4860;50.900;4.720;2023-03-14T01:16:17;0.20;;;0.20;;
9643;SDS011;4860;50.900;4.720;2023-03-14T01:18:44;0.20;;;0.20;;
9643;SDS011;4860;50.900;4.720;2023-03-14T01:21:12;0.20;;;0.20;;
9643;SDS011;4860;50.900;4.720;2023-03-14T01:23:38;0.10;;;0.10;;
9643;SDS011;4860;50.900;4.720;2023-03-14T01:26:07;0.20;;;0.20;;
9643;SDS011;4860;50.900;4.720;2023-03-14T01:28:34;0.20;;;0.20;;
9643;SDS011;4860;50.900;4.720;2023-03-14T01:31:04;0.20;;;0.20;;
9643;SDS011;4860;50.900;4.720;2023-03-14T01:33:30;0.20;;;0.20;;
9643;SDS011;4860;50.900;4.720;2023-03-14T01:35:57;0.10;;;0.10;;
9643;SDS011;4860;50.900;4.720;2023-03-14T01:38:23;0.20;;;0.20;;
9643;SDS011;4860;50.900;4.720;2023-03-14T01:40:49;0.20;;;0.20;;
9643;SDS011;4860;50.900;4.720;2023-03-14T01:43:16;0.10;;;0.10;;
9643;SDS011;4860;50.900;4.720;2023-03-14T01:48:28;0.20;;;0.20;;
9643;SDS011;4860;50.900;4.720;2023-03-14T01:50:57;0.20;;;0.20;;
9643;SDS011;4860;50.900;4.720;2023-03-14T01:53:24;0.20;;;0.20;;
9643;SDS011;4860;50.900;4.720;2023-03-14T01:55:50;0.20;;;0.20;;
9643;SDS011;4860;50.900;4.720;2023-03-14T01:58:18;0.20;;;0.20;;
9643;SDS011;4860;50.900;4.720;2023-03-14T02:00:45;0.20;;;0.20;;
9643;SDS011;4860;50.900;4.720;2023-03-14T02:03:15;0.20;;;0.20;;
9643;SDS011;4860;50.900;4.720;2023-03-14T02:05:42;0.17;;;0.17;;
9643;SDS011;4860;50.900;4.720;2023-03-14T02:08:10;0.20;;;0.20;;
9643;SDS011;4860;50.900;4.720;2023-03-14T02:10:38;0.20;;;0.20;;
9643;SDS011;4860;50.900;4.720;2023-03-14T02:13:06;0.20;;;0.20;;
9643;SDS011;4860;50.900;4.720;2023-03-14T02:15:33;0.17;;;0.17;;
9643;SDS011;4860;50.900;4.720;2023-03-14T02:17:59;0.20;;;0.20;;
9643;SDS011;4860;50.900;4.720;2023-03-14T02:23:12;0.20;;;0.20;;
9643;SDS011;4860;50.900;4.720;2023-03-14T02:25:41;0.30;;;0.30;;
9643;SDS011;4860;50.900;4.720;2023-03-14T02:28:09;0.30;;;0.30;;
9643;SDS011;4860;50.900;4.720;2023-03-14T02:30:36;0.20;;;0.20;;
9643;SDS011;4860;50.900;4.720;2023-03-14T02:33:07;0.30;;;0.30;;
9643;SDS011;4860;50.900;4.720;2023-03-14T02:35:35;0.20;;;0.20;;
9643;SDS011;4860;50.900;4.720;2023-03-14T02:40:28;0.20;;;0.20;;
9643;SDS011;4860;50.900;4.720;2023-03-14T02:42:54;0.20;;;0.20;;
9643;SDS011;4860;50.900;4.720;2023-03-14T02:47:49;0.20;;;0.20;;
9643;SDS011;4860;50.900;4.720;2023-03-14T02:50:18;0.20;;;0.20;;
9643;SDS011;4860;50.900;4.720;2023-03-14T02:52:46;0.20;;;0.20;;
9643;SDS011;4860;50.900;4.720;2023-03-14T02:55:12;0.20;;;0.20;;
9643;SDS011;4860;50.900;4.720;2023-03-14T02:57:38;0.20;;;0.20;;
9643;SDS011;4860;50.900;4.720;2023-03-14T03:00:04;0.17;;;0.17;;
9643;SDS011;4860;50.900;4.720;2023-03-14T03:02:31;0.30;;;0.30;;
9643;SDS011;4860;50.900;4.720;2023-03-14T03:04:57;0.25;;;0.25;;
9643;SDS011;4860;50.900;4.720;2023-03-14T03:07:24;0.20;;;0.20;;
9643;SDS011;4860;50.900;4.720;2023-03-14T03:09:50;0.20;;;0.20;;
9643;SDS011;4860;50.900;4.720;2023-03-14T03:12:16;0.20;;;0.20;;
9643;SDS011;4860;50.900;4.720;2023-03-14T03:14:42;0.20;;;0.20;;
9643;SDS011;4860;50.900;4.720;2023-03-14T03:17:08;0.25;;;0.25;;
9643;SDS011;4860;50.900;4.720;2023-03-14T03:19:35;0.20;;;0.20;;
9643;SDS011;4860;50.900;4.720;2023-03-14T03:22:01;0.20;;;0.20;;
9643;SDS011;4860;50.900;4.720;2023-03-14T03:24:27;0.20;;;0.20;;
9643;SDS011;4860;50.900;4.720;2023-03-14T03:26:54;0.20;;;0.20;;
9643;SDS011;4860;50.900;4.720;2023-03-14T03:29:20;0.20;;;0.20;;
9643;SDS011;4860;50.900;4.720;2023-03-14T03:31:46;0.20;;;0.20;;
9643;SDS011;4860;50.900;4.720;2023-03-14T03:34:12;0.20;;;0.20;;
9643;SDS011;4860;50.900;4.720;2023-03-14T03:36:39;0.22;;;0.22;;
9643;SDS011;4860;50.900;4.720;2023-03-14T03:39:05;0.20;;;0.20;;
9643;SDS011;4860;50.900;4.720;2023-03-14T03:41:31;0.20;;;0.20;;
9643;SDS011;4860;50.900;4.720;2023-03-14T03:43:58;0.20;;;0.20;;
9643;SDS011;4860;50.900;4.720;2023-03-14T03:46:24;0.20;;;0.20;;
9643;SDS011;4860;50.900;4.720;2023-03-14T03:48:54;0.20;;;0.20;;
9643;SDS011;4860;50.900;4.720;2023-03-14T03:51:20;0.13;;;0.13;;
9643;SDS011;4860;50.900;4.720;2023-03-14T03:53:46;0.20;;;0.20;;
9643;SDS011;4860;50.900;4.720;2023-03-14T03:56:12;0.17;;;0.17;;
9643;SDS011;4860;50.900;4.720;2023-03-14T03:58:39;0.20;;;0.20;;
9643;SDS011;4860;50.900;4.720;2023-03-14T04:01:05;0.20;;;0.20;;
9643;SDS011;4860;50.900;4.720;2023-03-14T04:03:34;0.20;;;0.20;;
9643;SDS011;4860;50.900;4.720;2023-03-14T04:06:02;0.15;;;0.15;;
9643;SDS011;4860;50.900;4.720;2023-03-14T04:08:28;0.20;;;0.20;;
9643;SDS011;4860;50.900;4.720;2023-03-14T04:10:58;0.20;;;0.20;;
9643;SDS011;4860;50.900;4.720;2023-03-14T04:13:25;0.20;;;0.20;;
9643;SDS011;4860;50.900;4.720;2023-03-14T04:15:51;0.20;;;0.20;;
9643;SDS011;4860;50.900;4.720;2023-03-14T04:18:17;0.20;;;0.20;;
9643;SDS011;4860;50.900;4.720;2023-03-14T04:20:43;0.20;;;0.20;;
9643;SDS011;4860;50.900;4.720;2023-03-14T04:23:10;0.20;;;0.20;;
9643;SDS011;4860;50.900;4.720;2023-03-14T04:25:36;0.10;;;0.10;;
9643;SDS011;4860;50.900;4.720;2023-03-14T04:28:02;0.20;;;0.20;;
9643;SDS011;4860;50.900;4.720;2023-03-14T04:30:29;0.20;;;0.20;;
9643;SDS011;4860;50.900;4.720;2023-03-14T04:32:55;0.20;;;0.20;;
9643;SDS011;4860;50.900;4.720;2023-03-14T04:35:21;0.20;;;0.20;;
9643;SDS011;4860;50.900;4.720;2023-03-14T04:37:47;0.20;;;0.20;;
9643;SDS011;4860;50.900;4.720;2023-03-14T04:40:14;0.20;;;0.20;;
9643;SDS011;4860;50.900;4.720;2023-03-14T04:42:41;0.20;;;0.20;;
9643;SDS011;4860;50.900;4.720;2023-03-14T04:45:07;0.20;;;0.20;;
9643;SDS011;4860;50.900;4.720;2023-03-14T04:47:33;0.20;;;0.20;;
9643;SDS011;4860;50.900;4.720;2023-03-14T04:50:00;0.20;;;0.20;;
9643;SDS011;4860;50.900;4.720;2023-03-14T04:52:26;0.10;;;0.10;;
9643;SDS011;4860;50.900;4.720;2023-03-14T04:54:52;0.20;;;0.20;;
9643;SDS011;4860;50.900;4.720;2023-03-14T04:57:18;0.20;;;0.20;;
9643;SDS011;4860;50.900;4.720;2023-03-14T04:59:45;0.20;;;0.20;;
9643;SDS011;4860;50.900;4.720;2023-03-14T05:02:11;0.10;;;0.10;;
9643;SDS011;4860;50.900;4.720;2023-03-14T05:04:37;0.20;;;0.20;;
9643;SDS011;4860;50.900;4.720;2023-03-14T05:07:03;0.20;;;0.20;;
9643;SDS011;4860;50.900;4.720;2023-03-14T05:09:29;0.20;;;0.20;;
9643;SDS011;4860;50.900;4.720;2023-03-14T05:11:55;0.17;;;0.17;;
9643;SDS011;4860;50.900;4.720;2023-03-14T05:14:21;0.10;;;0.10;;
9643;SDS011;4860;50.900;4.720;2023-03-14T05:16:47;0.20;;;0.20;;
9643;SDS011;4860;50.900;4.720;2023-03-14T05:19:13;0.20;;;0.20;;
9643;SDS011;4860;50.900;4.720;2023-03-14T05:21:39;0.20;;;0.20;;
9643;SDS011;4860;50.900;4.720;2023-03-14T05:24:06;0.20;;;0.20;;
9643;SDS011;4860;50.900;4.720;2023-03-14T05:26:32;0.20;;;0.20;;
9643;SDS011;4860;50.900;4.720;2023-03-14T05:28:58;0.20;;;0.20;;
9643;SDS011;4860;50.900;4.720;2023-03-14T05:31:24;0.13;;;0.13;;
9643;SDS011;4860;50.900;4.720;2023-03-14T05:33:50;0.20;;;0.20;;
9643;SDS011;4860;50.900;4.720;2023-03-14T05:36:16;0.20;;;0.20;;
9643;SDS011;4860;50.900;4.720;2023-03-14T05:38:42;0.17;;;0.17;;
9643;SDS011;4860;50.900;4.720;2023-03-14T05:41:08;0.10;;;0.10;;
9643;SDS011;4860;50.900;4.720;2023-03-14T05:43:35;0.20;;;0.20;;
9643;SDS011;4860;50.900;4.720;2023-03-14T05:46:01;0.20;;;0.20;;
9643;SDS011;4860;50.900;4.720;2023-03-14T05:48:27;0.20;;;0.20;;
9643;SDS011;4860;50.900;4.720;2023-03-14T05:50:56;0.20;;;0.20;;
9643;SDS011;4860;50.900;4.720;2023-03-14T05:53:24;0.20;;;0.20;;
9643;SDS011;4860;50.900;4.720;2023-03-14T05:55:54;0.20;;;0.20;;
9643;SDS011;4860;50.900;4.720;2023-03-14T05:58:20;0.20;;;0.20;;
9643;SDS011;4860;50.900;4.720;2023-03-14T06:00:46;0.20;;;0.20;;
9643;SDS011;4860;50.900;4.720;2023-03-14T06:03:12;0.20;;;0.20;;
9643;SDS011;4860;50.900;4.720;2023-03-14T06:05:38;0.20;;;0.20;;
9643;SDS011;4860;50.900;4.720;2023-03-14T06:08:05;0.20;;;0.20;;
9643;SDS011;4860;50.900;4.720;2023-03-14T06:10:31;0.20;;;0.20;;
9643;SDS011;4860;50.900;4.720;2023-03-14T06:12:57;0.13;;;0.13;;
9643;SDS011;4860;50.900;4.720;2023-03-14T06:15:23;0.20;;;0.20;;
9643;SDS011;4860;50.900;4.720;2023-03-14T06:17:50;0.20;;;0.20;;
9643;SDS011;4860;50.900;4.720;2023-03-14T06:20:16;0.20;;;0.20;;
9643;SDS011;4860;50.900;4.720;2023-03-14T06:22:42;0.13;;;0.13;;
9643;SDS011;4860;50.900;4.720;2023-03-14T06:25:08;0.13;;;0.13;;
9643;SDS011;4860;50.900;4.720;2023-03-14T06:27:34;0.10;;;0.10;;
9643;SDS011;4860;50.900;4.720;2023-03-14T06:30:00;0.10;;;0.10;;
9643;SDS011;4860;50.900;4.720;2023-03-14T06:32:27;0.10;;;0.10;;
9643;SDS011;4860;50.900;4.720;2023-03-14T06:34:53;0.20;;;0.20;;
9643;SDS011;4860;50.900;4.720;2023-03-14T06:37:19;0.15;;;0.15;;
9643;SDS011;4860;50.900;4.720;2023-03-14T06:39:45;0.10;;;0.10;;
9643;SDS011;4860;50.900;4.720;2023-03-14T06:42:11;0.20;;;0.20;;
9643;SDS011;4860;50.900;4.720;2023-03-14T06:44:37;0.20;;;0.20;;
9643;SDS011;4860;50.900;4.720;2023-03-14T06:47:03;0.20;;;0.20;;
9643;SDS011;4860;50.900;4.720;2023-03-14T06:49:30;0.20;;;0.20;;
9643;SDS011;4860;50.900;4.720;2023-03-14T06:51:56;0.20;;;0.20;;
9643;SDS011;4860;50.900;4.720;2023-03-14T06:54:22;0.10;;;0.10;;
9643;SDS011;4860;50.900;4.720;2023-03-14T06:56:48;0.20;;;0.20;;
9643;SDS011;4860;50.900;4.720;2023-03-14T06:59:14;0.17;;;0.17;;
9643;SDS011;4860;50.900;4.720;2023-03-14T07:01:40;0.20;;;0.20;;
9643;SDS011;4860;50.900;4.720;2023-03-14T07:04:06;0.17;;;0.17;;
9643;SDS011;4860;50.900;4.720;2023-03-14T07:06:33;0.10;;;0.10;;
9643;SDS011;4860;50.900;4.720;2023-03-14T07:08:59;0.20;;;0.20;;
9643;SDS011;4860;50.900;4.720;2023-03-14T07:11:25;0.20;;;0.20;;
9643;SDS011;4860;50.900;4.720;2023-03-14T07:13:52;0.28;;;0.28;;
9643;SDS011;4860;50.900;4.720;2023-03-14T07:16:19;0.20;;;0.20;;
9643;SDS011;4860;50.900;4.720;2023-03-14T07:18:45;0.20;;;0.20;;
9643;SDS011;4860;50.900;4.720;2023-03-14T07:21:12;0.30;;;0.30;;
9643;SDS011;4860;50.900;4.720;2023-03-14T07:23:38;0.30;;;0.30;;
9643;SDS011;4860;50.900;4.720;2023-03-14T07:26:04;0.30;;;0.30;;
9643;SDS011;4860;50.900;4.720;2023-03-14T07:28:30;0.30;;;0.30;;
9643;SDS011;4860;50.900;4.720;2023-03-14T07:30:56;0.20;;;0.20;;
9643;SDS011;4860;50.900;4.720;2023-03-14T07:33:23;0.30;;;0.30;;
9643;SDS011;4860;50.900;4.720;2023-03-14T07:35:49;0.30;;;0.30;;
9643;SDS011;4860;50.900;4.720;2023-03-14T07:38:16;0.30;;;0.30;;
9643;SDS011;4860;50.900;4.720;2023-03-14T07:40:42;0.30;;;0.30;;
9643;SDS011;4860;50.900;4.720;2023-03-14T07:43:08;0.30;;;0.30;;
9643;SDS011;4860;50.900;4.720;2023-03-14T07:45:34;0.30;;;0.30;;
9643;SDS011;4860;50.900;4.720;2023-03-14T07:48:00;0.30;;;0.30;;
9643;SDS011;4860;50.900;4.720;2023-03-14T07:50:27;0.30;;;0.30;;
9643;SDS011;4860;50.900;4.720;2023-03-14T07:52:54;0.20;;;0.20;;
9643;SDS011;4860;50.900;4.720;2023-03-14T07:55:20;0.20;;;0.20;;
9643;SDS011;4860;50.900;4.720;2023-03-14T07:57:46;0.30;;;0.30;;
9643;SDS011;4860;50.900;4.720;2023-03-14T08:00:12;0.30;;;0.30;;
9643;SDS011;4860;50.900;4.720;2023-03-14T08:02:42;0.30;;;0.30;;
9643;SDS011;4860;50.900;4.720;2023-03-14T08:05:08;0.30;;;0.30;;
9643;SDS011;4860;50.900;4.720;2023-03-14T08:07:35;0.30;;;0.30;;
9643;SDS011;4860;50.900;4.720;2023-03-14T08:10:01;0.30;;;0.30;;
9643;SDS011;4860;50.900;4.720;2023-03-14T08:12:28;0.30;;;0.30;;
9643;SDS011;4860;50.900;4.720;2023-03-14T08:14:54;0.30;;;0.30;;
9643;SDS011;4860;50.900;4.720;2023-03-14T08:17:20;0.20;;;0.20;;
9643;SDS011;4860;50.900;4.720;2023-03-14T08:19:46;0.30;;;0.30;;
9643;SDS011;4860;50.900;4.720;2023-03-14T08:22:12;0.30;;;0.30;;
9643;SDS011;4860;50.900;4.720;2023-03-14T08:24:38;0.30;;;0.30;;
9643;SDS011;4860;50.900;4.720;2023-03-14T08:27:06;0.30;;;0.30;;
9643;SDS011;4860;50.900;4.720;2023-03-14T08:29:32;0.30;;;0.30;;
9643;SDS011;4860;50.900;4.720;2023-03-14T08:31:58;0.20;;;0.20;;
9643;SDS011;4860;50.900;4.720;2023-03-14T08:34:26;0.20;;;0.20;;
9643;SDS011;4860;50.900;4.720;2023-03-14T08:36:52;0.20;;;0.20;;
9643;SDS011;4860;50.900;4.720;2023-03-14T08:39:20;0.20;;;0.20;;
9643;SDS011;4860;50.900;4.720;2023-03-14T08:41:46;0.30;;;0.30;;
9643;SDS011;4860;50.900;4.720;2023-03-14T08:44:12;0.30;;;0.30;;
9643;SDS011;4860;50.900;4.720;2023-03-14T08:46:40;0.30;;;0.30;;
9643;SDS011;4860;50.900;4.720;2023-03-14T08:49:06;0.30;;;0.30;;
9643;SDS011;4860;50.900;4.720;2023-03-14T08:51:32;0.30;;;0.30;;
9643;SDS011;4860;50.900;4.720;2023-03-14T08:54:01;0.30;;;0.30;;
9643;SDS011;4860;50.900;4.720;2023-03-14T08:56:28;0.20;;;0.20;;
9643;SDS011;4860;50.900;4.720;2023-03-14T08:58:54;0.30;;;0.30;;
9643;SDS011;4860;50.900;4.720;2023-03-14T09:01:20;0.20;;;0.20;;
9643;SDS011;4860;50.900;4.720;2023-03-14T09:03:49;0.30;;;0.30;;
9643;SDS011;4860;50.900;4.720;2023-03-14T09:06:16;0.28;;;0.28;;
9643;SDS011;4860;50.900;4.720;2023-03-14T09:08:43;0.30;;;0.30;;
9643;SDS011;4860;50.900;4.720;2023-03-14T09:11:10;0.30;;;0.30;;
9643;SDS011;4860;50.900;4.720;2023-03-14T09:13:36;0.28;;;0.28;;
9643;SDS011;4860;50.900;4.720;2023-03-14T09:16:02;0.20;;;0.20;;
9643;SDS011;4860;50.900;4.720;2023-03-14T09:18:28;0.30;;;0.30;;
9643;SDS011;4860;50.900;4.720;2023-03-14T09:20:55;0.30;;;0.30;;
9643;SDS011;4860;50.900;4.720;2023-03-14T09:23:21;0.22;;;0.22;;
9643;SDS011;4860;50.900;4.720;2023-03-14T09:25:47;0.30;;;0.30;;
9643;SDS011;4860;50.900;4.720;2023-03-14T09:28:13;0.20;;;0.20;;
9643;SDS011;4860;50.900;4.720;2023-03-14T09:30:40;0.30;;;0.30;;
9643;SDS011;4860;50.900;4.720;2023-03-14T09:33:06;0.30;;;0.30;;
9643;SDS011;4860;50.900;4.720;2023-03-14T09:35:33;0.30;;;0.30;;
9643;SDS011;4860;50.900;4.720;2023-03-14T09:37:59;0.30;;;0.30;;
9643;SDS011;4860;50.900;4.720;2023-03-14T09:40:27;0.28;;;0.28;;
9643;SDS011;4860;50.900;4.720;2023-03-14T09:42:57;0.30;;;0.30;;
9643;SDS011;4860;50.900;4.720;2023-03-14T09:45:27;0.30;;;0.30;;
9643;SDS011;4860;50.900;4.720;2023-03-14T09:47:55;0.30;;;0.30;;
9643;SDS011;4860;50.900;4.720;2023-03-14T09:50:21;0.30;;;0.30;;
9643;SDS011;4860;50.900;4.720;2023-03-14T09:52:48;0.30;;;0.30;;
9643;SDS011;4860;50.900;4.720;2023-03-14T09:55:19;0.30;;;0.30;;
9643;SDS011;4860;50.900;4.720;2023-03-14T09:57:46;0.30;;;0.30;;
9643;SDS011;4860;50.900;4.720;2023-03-14T10:00:18;0.40;;;0.40;;
9643;SDS011;4860;50.900;4.720;2023-03-14T10:02:52;0.30;;;0.30;;
9643;SDS011;4860;50.900;4.720;2023-03-14T10:05:20;0.30;;;0.30;;
9643;SDS011;4860;50.900;4.720;2023-03-14T10:07:47;0.30;;;0.30;;
9643;SDS011;4860;50.900;4.720;2023-03-14T10:10:15;0.30;;;0.30;;
9643;SDS011;4860;50.900;4.720;2023-03-14T10:12:44;0.30;;;0.30;;
9643;SDS011;4860;50.900;4.720;2023-03-14T10:15:12;0.30;;;0.30;;
9643;SDS011;4860;50.900;4.720;2023-03-14T10:17:49;0.30;;;0.30;;
9643;SDS011;4860;50.900;4.720;2023-03-14T10:22:59;0.30;;;0.30;;
9643;SDS011;4860;50.900;4.720;2023-03-14T10:25:29;0.20;;;0.20;;
9643;SDS011;4860;50.900;4.720;2023-03-14T10:27:56;0.30;;;0.30;;
9643;SDS011;4860;50.900;4.720;2023-03-14T10:30:39;0.30;;;0.30;;
9643;SDS011;4860;50.900;4.720;2023-03-14T10:33:10;0.30;;;0.30;;
9643;SDS011;4860;50.900;4.720;2023-03-14T10:35:37;0.30;;;0.30;;
9643;SDS011;4860;50.900;4.720;2023-03-14T10:38:04;0.30;;;0.30;;
9643;SDS011;4860;50.900;4.720;2023-03-14T10:40:31;0.30;;;0.30;;
9643;SDS011;4860;50.900;4.720;2023-03-14T10:42:59;0.30;;;0.30;;
9643;SDS011;4860;50.900;4.720;2023-03-14T10:47:59;0.30;;;0.30;;
9643;SDS011;4860;50.900;4.720;2023-03-14T10:50:27;0.30;;;0.30;;
9643;SDS011;4860;50.900;4.720;2023-03-14T10:52:54;0.30;;;0.30;;
9643;SDS011;4860;50.900;4.720;2023-03-14T10:55:20;0.30;;;0.30;;
9643;SDS011;4860;50.900;4.720;2023-03-14T10:57:46;0.30;;;0.30;;
9643;SDS011;4860;50.900;4.720;2023-03-14T11:00:22;0.30;;;0.30;;
9643;SDS011;4860;50.900;4.720;2023-03-14T11:02:55;0.30;;;0.30;;
9643;SDS011;4860;50.900;4.720;2023-03-14T11:05:35;0.40;;;0.40;;
9643;SDS011;4860;50.900;4.720;2023-03-14T11:08:08;0.30;;;0.30;;
9643;SDS011;4860;50.900;4.720;2023-03-14T11:10:36;0.30;;;0.30;;
9643;SDS011;4860;50.900;4.720;2023-03-14T11:23:22;0.30;;;0.30;;
9643;SDS011;4860;50.900;4.720;2023-03-14T11:28:18;0.30;;;0.30;;
9643;SDS011;4860;50.900;4.720;2023-03-14T11:33:21;0.40;;;0.40;;
9643;SDS011;4860;50.900;4.720;2023-03-14T11:35:59;0.30;;;0.30;;
9643;SDS011;4860;50.900;4.720;2023-03-14T11:38:30;0.30;;;0.30;;
9643;SDS011;4860;50.900;4.720;2023-03-14T11:40:59;0.30;;;0.30;;
9643;SDS011;4860;50.900;4.720;2023-03-14T11:43:27;0.30;;;0.30;;
9643;SDS011;4860;50.900;4.720;2023-03-14T11:48:41;0.40;;;0.40;;
9643;SDS011;4860;50.900;4.720;2023-03-14T11:51:52;0.30;;;0.30;;
9643;SDS011;4860;50.900;4.720;2023-03-14T11:54:09;0.30;;;0.30;;
9643;SDS011;4860;50.900;4.720;2023-03-14T11:56:46;0.30;;;0.30;;
9643;SDS011;4860;50.900;4.720;2023-03-14T11:59:17;0.30;;;0.30;;
9643;SDS011;4860;50.900;4.720;2023-03-14T12:01:54;0.30;;;0.30;;
9643;SDS011;4860;50.900;4.720;2023-03-14T12:06:51;0.30;;;0.30;;
9643;SDS011;4860;50.900;4.720;2023-03-14T12:09:18;0.30;;;0.30;;
9643;SDS011;4860;50.900;4.720;2023-03-14T12:11:50;0.30;;;0.30;;
9643;SDS011;4860;50.900;4.720;2023-03-14T12:14:27;0.38;;;0.38;;
9643;SDS011;4860;50.900;4.720;2023-03-14T12:20:03;0.30;;;0.30;;
9643;SDS011;4860;50.900;4.720;2023-03-14T12:22:35;0.30;;;0.30;;
9643;SDS011;4860;50.900;4.720;2023-03-14T12:25:06;0.30;;;0.30;;
9643;SDS011;4860;50.900;4.720;2023-03-14T12:30:05;0.30;;;0.30;;
9643;SDS011;4860;50.900;4.720;2023-03-14T12:32:41;0.30;;;0.30;;
9643;SDS011;4860;50.900;4.720;2023-03-14T12:35:32;0.30;;;0.30;;
9643;SDS011;4860;50.900;4.720;2023-03-14T12:37:53;0.30;;;0.30;;
9643;SDS011;4860;50.900;4.720;2023-03-14T12:40:25;0.30;;;0.30;;
9643;SDS011;4860;50.900;4.720;2023-03-14T12:42:59;0.30;;;0.30;;
9643;SDS011;4860;50.900;4.720;2023-03-14T12:45:30;0.37;;;0.37;;
9643;SDS011;4860;50.900;4.720;2023-03-14T12:48:09;0.40;;;0.40;;
9643;SDS011;4860;50.900;4.720;2023-03-14T12:50:41;0.40;;;0.40;;
9643;SDS011;4860;50.900;4.720;2023-03-14T12:55:40;0.40;;;0.40;;
9643;SDS011;4860;50.900;4.720;2023-03-14T13:00:35;0.30;;;0.30;;
9643;SDS011;4860;50.900;4.720;2023-03-14T13:03:24;0.37;;;0.37;;
9643;SDS011;4860;50.900;4.720;2023-03-14T13:05:56;0.30;;;0.30;;
9643;SDS011;4860;50.900;4.720;2023-03-14T13:08:34;0.30;;;0.30;;
9643;SDS011;4860;50.900;4.720;2023-03-14T13:11:01;0.30;;;0.30;;
9643;SDS011;4860;50.900;4.720;2023-03-14T13:13:28;0.30;;;0.30;;
9643;SDS011;4860;50.900;4.720;2023-03-14T13:15:56;0.40;;;0.40;;
9643;SDS011;4860;50.900;4.720;2023-03-14T13:21:17;0.30;;;0.30;;
9643;SDS011;4860;50.900;4.720;2023-03-14T13:29:22;0.30;;;0.30;;
9643;SDS011;4860;50.900;4.720;2023-03-14T13:31:50;0.30;;;0.30;;
9643;SDS011;4860;50.900;4.720;2023-03-14T13:34:16;0.40;;;0.40;;
9643;SDS011;4860;50.900;4.720;2023-03-14T13:36:42;0.40;;;0.40;;
9643;SDS011;4860;50.900;4.720;2023-03-14T13:39:22;0.30;;;0.30;;
9643;SDS011;4860;50.900;4.720;2023-03-14T13:41:50;0.30;;;0.30;;
9643;SDS011;4860;50.900;4.720;2023-03-14T13:44:18;0.40;;;0.40;;
9643;SDS011;4860;50.900;4.720;2023-03-14T13:46:48;0.40;;;0.40;;
9643;SDS011;4860;50.900;4.720;2023-03-14T13:49:24;0.40;;;0.40;;
9643;SDS011;4860;50.900;4.720;2023-03-14T13:51:50;0.40;;;0.40;;
9643;SDS011;4860;50.900;4.720;2023-03-14T13:54:18;0.40;;;0.40;;
9643;SDS011;4860;50.900;4.720;2023-03-14T13:56:45;0.40;;;0.40;;
9643;SDS011;4860;50.900;4.720;2023-03-14T13:59:21;0.37;;;0.37;;
9643;SDS011;4860;50.900;4.720;2023-03-14T14:01:47;0.40;;;0.40;;
9643;SDS011;4860;50.900;4.720;2023-03-14T14:04:17;0.40;;;0.40;;
9643;SDS011;4860;50.900;4.720;2023-03-14T14:06:45;0.40;;;0.40;;
9643;SDS011;4860;50.900;4.720;2023-03-14T14:09:16;0.30;;;0.30;;
9643;SDS011;4860;50.900;4.720;2023-03-14T14:14:25;0.30;;;0.30;;
9643;SDS011;4860;50.900;4.720;2023-03-14T14:16:53;0.30;;;0.30;;
9643;SDS011;4860;50.900;4.720;2023-03-14T14:19:20;0.30;;;0.30;;
9643;SDS011;4860;50.900;4.720;2023-03-14T14:21:46;0.30;;;0.30;;
9643;SDS011;4860;50.900;4.720;2023-03-14T14:24:13;0.30;;;0.30;;
9643;SDS011;4860;50.900;4.720;2023-03-14T14:26:53;0.30;;;0.30;;
9643;SDS011;4860;50.900;4.720;2023-03-14T14:29:30;0.30;;;0.30;;
9643;SDS011;4860;50.900;4.720;2023-03-14T14:32:00;0.30;;;0.30;;
9643;SDS011;4860;50.900;4.720;2023-03-14T14:34:26;0.30;;;0.30;;
9643;SDS011;4860;50.900;4.720;2023-03-14T14:36:53;0.30;;;0.30;;
9643;SDS011;4860;50.900;4.720;2023-03-14T14:39:20;0.25;;;0.25;;
9643;SDS011;4860;50.900;4.720;2023-03-14T14:41:47;0.30;;;0.30;;
9643;SDS011;4860;50.900;4.720;2023-03-14T14:44:16;0.30;;;0.30;;
9643;SDS011;4860;50.900;4.720;2023-03-14T14:46:43;0.30;;;0.30;;
9643;SDS011;4860;50.900;4.720;2023-03-14T14:49:10;0.30;;;0.30;;
9643;SDS011;4860;50.900;4.720;2023-03-14T14:51:39;0.30;;;0.30;;
9643;SDS011;4860;50.900;4.720;2023-03-14T14:54:11;0.30;;;0.30;;
9643;SDS011;4860;50.900;4.720;2023-03-14T14:56:38;0.30;;;0.30;;
9643;SDS011;4860;50.900;4.720;2023-03-14T14:59:06;0.30;;;0.30;;
9643;SDS011;4860;50.900;4.720;2023-03-14T15:01:38;0.30;;;0.30;;
9643;SDS011;4860;50.900;4.720;2023-03-14T15:04:09;0.30;;;0.30;;
9643;SDS011;4860;50.900;4.720;2023-03-14T15:06:37;0.30;;;0.30;;
9643;SDS011;4860;50.900;4.720;2023-03-14T15:09:04;0.40;;;0.40;;
9643;SDS011;4860;50.900;4.720;2023-03-14T15:11:30;0.40;;;0.40;;
9643;SDS011;4860;50.900;4.720;2023-03-14T15:13:56;0.30;;;0.30;;
9643;SDS011;4860;50.900;4.720;2023-03-14T15:16:24;0.40;;;0.40;;
9643;SDS011;4860;50.900;4.720;2023-03-14T15:18:54;0.30;;;0.30;;
9643;SDS011;4860;50.900;4.720;2023-03-14T15:21:21;0.40;;;0.40;;
9643;SDS011;4860;50.900;4.720;2023-03-14T15:23:47;0.40;;;0.40;;
9643;SDS011;4860;50.900;4.720;2023-03-14T15:26:13;0.40;;;0.40;;
9643;SDS011;4860;50.900;4.720;2023-03-14T15:28:40;0.40;;;0.40;;
9643;SDS011;4860;50.900;4.720;2023-03-14T15:31:10;0.40;;;0.40;;
9643;SDS011;4860;50.900;4.720;2023-03-14T15:33:37;0.40;;;0.40;;
9643;SDS011;4860;50.900;4.720;2023-03-14T15:36:04;0.40;;;0.40;;
9643;SDS011;4860;50.900;4.720;2023-03-14T15:38:30;0.30;;;0.30;;
9643;SDS011;4860;50.900;4.720;2023-03-14T15:40:56;0.30;;;0.30;;
9643;SDS011;4860;50.900;4.720;2023-03-14T15:43:22;0.30;;;0.30;;
9643;SDS011;4860;50.900;4.720;2023-03-14T15:45:48;0.40;;;0.40;;
9643;SDS011;4860;50.900;4.720;2023-03-14T15:48:17;0.30;;;0.30;;
9643;SDS011;4860;50.900;4.720;2023-03-14T15:50:43;0.40;;;0.40;;
9643;SDS011;4860;50.900;4.720;2023-03-14T15:53:10;0.30;;;0.30;;
9643;SDS011;4860;50.900;4.720;2023-03-14T15:55:36;0.40;;;0.40;;
9643;SDS011;4860;50.900;4.720;2023-03-14T15:58:02;0.30;;;0.30;;
9643;SDS011;4860;50.900;4.720;2023-03-14T16:00:29;0.30;;;0.30;;
9643;SDS011;4860;50.900;4.720;2023-03-14T16:02:55;0.40;;;0.40;;
9643;SDS011;4860;50.900;4.720;2023-03-14T16:05:21;0.30;;;0.30;;
9643;SDS011;4860;50.900;4.720;2023-03-14T16:07:47;0.40;;;0.40;;
9643;SDS011;4860;50.900;4.720;2023-03-14T16:10:14;0.40;;;0.40;;
9643;SDS011;4860;50.900;4.720;2023-03-14T16:12:40;0.40;;;0.40;;
9643;SDS011;4860;50.900;4.720;2023-03-14T16:15:07;0.37;;;0.37;;